Time;durP1;ratioP1;P1;durP2;ratioP2;P2;SDS_P1;SDS_P2;PMS_P1;PMS_P2;Temp;Humidity;BMP_temperature;BMP_pressure;BME280_temperature;BME280_humidity;BME280_pressure;Samples;Min_cycle;Max_cycle;Signal;HPM_P1;HPM_P2
2022/10/26 00:01:43;;;;;;;;;;;;;;;;;;;;;
2022/10/26 00:04:14;;;;;;;8.30;4.28;;;;;;;;;;5060144;28;20084;-83
2022/10/26 00:06:47;;;;;;;10.75;4.15;;;;;;;;;;5061405;28;20865;-84
2022/10/26 00:09:16;;;;;;;7.50;4.20;;;;;;;;;;5067074;28;20091;-84
2022/10/26 00:11:47;;;;;;;9.95;4.10;;;;;;;;;;5061305;28;20138;-85
2022/10/26 00:14:15;;;;;;;13.35;4.10;;;;;;;;;;5060491;28;20072;-84
2022/10/26 00:16:57;;;;;;;6.22;3.42;;;;;;;;;;5063255;28;20550;-84
2022/10/26 00:19:43;;;;;;;14.38;4.25;;;;;;;;;;5057946;28;20507;-83
2022/10/26 00:22:23;;;;;;;9.82;4.30;;;;;;;;;;5068021;28;20049;-83
2022/10/26 00:25:06;;;;;;;9.15;3.95;;;;;;;;;;5065743;28;20322;-85
2022/10/26 00:27:48;;;;;;;12.23;5.05;;;;;;;;;;5065845;28;20509;-83
2022/10/26 00:30:29;;;;;;;17.17;5.43;;;;;;;;;;5017659;28;20045;-83
2022/10/26 00:33:26;;;;;;;9.80;4.50;;;;;;;;;;5061368;28;20852;-85
2022/10/26 00:36:00;;;;;;;8.18;4.07;;;;;;;;;;5067782;28;20067;-85
2022/10/26 00:38:38;;;;;;;11.35;4.20;;;;;;;;;;5064175;28;20103;-84
2022/10/26 00:41:25;;;;;;;10.13;4.68;;;;;;;;;;5055861;28;20064;-84
2022/10/26 00:43:58;;;;;;;10.68;4.40;;;;;;;;;;5060075;28;20057;-84
2022/10/26 00:46:35;;;;;;;7.32;3.92;;;;;;;;;;5063115;28;20061;-84
2022/10/26 00:49:25;;;;;;;13.57;4.30;;;;;;;;;;5044065;28;20052;-83
2022/10/26 00:51:58;;;;;;;10.25;5.28;;;;;;;;;;5059238;28;20049;-84
2022/10/26 00:54:43;;;;;;;8.88;4.50;;;;;;;;;;5067025;28;20060;-84
2022/10/26 00:57:29;;;;;;;13.38;4.53;;;;;;;;;;4980399;28;20070;-84
2022/10/26 01:00:00;;;;;;;6.90;4.32;;;;;;;;;;4988051;28;20071;-84
2022/10/26 01:02:49;;;;;;;9.32;4.50;;;;;;;;;;5050544;28;20052;-84
2022/10/26 01:05:29;;;;;;;10.25;4.60;;;;;;;;;;5066364;28;20049;-84
2022/10/26 01:08:08;;;;;;;12.30;5.07;;;;;;;;;;5065181;28;20206;-85
2022/10/26 01:10:45;;;;;;;10.70;5.38;;;;;;;;;;5066499;28;20064;-84
2022/10/26 01:13:15;;;;;;;10.38;4.65;;;;;;;;;;5062824;28;20056;-84
2022/10/26 01:16:05;;;;;;;8.65;4.72;;;;;;;;;;5068944;28;20053;-84
2022/10/26 01:18:49;;;;;;;13.07;4.90;;;;;;;;;;5066854;28;20053;-85
2022/10/26 01:21:24;;;;;;;8.07;4.60;;;;;;;;;;5035968;28;20053;-85
2022/10/26 01:24:25;;;;;;;12.65;4.03;;;;;;;;;;5002053;28;20859;-87
2022/10/26 01:27:26;;;;;;;13.05;5.00;;;;;;;;;;5005919;28;20815;-84
2022/10/26 01:30:17;;;;;;;16.50;4.93;;;;;;;;;;4999082;28;20059;-83
2022/10/26 01:33:14;;;;;;;9.02;4.38;;;;;;;;;;5003344;28;20055;-84
2022/10/26 01:35:51;;;;;;;10.25;4.30;;;;;;;;;;5003702;28;20755;-84
2022/10/26 01:39:00;;;;;;;10.05;4.35;;;;;;;;;;5009471;28;20050;-84
2022/10/26 01:41:48;;;;;;;7.35;4.35;;;;;;;;;;5004284;28;20058;-84
2022/10/26 01:44:48;;;;;;;7.88;3.97;;;;;;;;;;4982212;28;20196;-84
2022/10/26 01:47:18;;;;;;;8.40;4.28;;;;;;;;;;5001654;28;20129;-83
2022/10/26 01:50:08;;;;;;;10.40;4.50;;;;;;;;;;5008404;28;20055;-84
2022/10/26 01:52:46;;;;;;;10.57;3.80;;;;;;;;;;5006892;28;20089;-84
2022/10/26 01:55:50;;;;;;;7.20;3.80;;;;;;;;;;5010177;28;20149;-84
2022/10/26 02:02:27;;;;;;;7.60;3.40;;;;;;;;;;4996603;28;20082;-85
2022/10/26 02:05:12;;;;;;;8.90;4.05;;;;;;;;;;5002848;28;20170;-85
2022/10/26 02:07:57;;;;;;;12.05;3.78;;;;;;;;;;5022180;28;20131;-84
2022/10/26 02:11:15;;;;;;;10.63;4.00;;;;;;;;;;5050167;28;20049;-85
2022/10/26 02:14:26;;;;;;;9.65;4.47;;;;;;;;;;5056960;28;20048;-85
2022/10/26 02:17:41;;;;;;;9.55;4.07;;;;;;;;;;5067240;28;20061;-85
2022/10/26 02:20:41;;;;;;;7.00;3.55;;;;;;;;;;4987060;28;20115;-84
2022/10/26 02:29:18;;;;;;;9.52;3.67;;;;;;;;;;4902028;29;20094;-85
2022/10/26 02:32:38;;;;;;;11.82;3.90;;;;;;;;;;4875454;29;20198;-85
2022/10/26 02:35:22;;;;;;;11.18;4.18;;;;;;;;;;4864102;29;20238;-85
2022/10/26 02:37:52;;;;;;;6.32;4.40;;;;;;;;;;4871555;29;20072;-85
2022/10/26 02:40:41;;;;;;;8.73;3.92;;;;;;;;;;4872813;29;20536;-85
2022/10/26 02:43:41;;;;;;;10.00;4.28;;;;;;;;;;4874421;29;20057;-85
2022/10/26 02:46:30;;;;;;;14.00;4.90;;;;;;;;;;4871409;29;20059;-86
2022/10/26 02:49:48;;;;;;;7.95;4.35;;;;;;;;;;4870284;29;20061;-85
2022/10/26 02:55:50;;;;;;;9.65;3.95;;;;;;;;;;4799101;29;20147;-85
2022/10/26 02:58:53;;;;;;;10.23;3.85;;;;;;;;;;4891205;29;20048;-85
2022/10/26 03:01:53;;;;;;;6.95;3.90;;;;;;;;;;4910133;29;20071;-85
2022/10/26 03:04:41;;;;;;;10.55;4.53;;;;;;;;;;4924556;28;20088;-84
2022/10/26 03:07:37;;;;;;;9.57;4.25;;;;;;;;;;4923709;29;20060;-85
2022/10/26 03:16:56;;;;;;;14.18;4.65;;;;;;;;;;4934464;28;20062;-85
2022/10/26 03:19:27;;;;;;;9.80;4.22;;;;;;;;;;4942800;28;20828;-85
2022/10/26 03:22:42;;;;;;;11.23;4.72;;;;;;;;;;4943431;28;20537;-86
2022/10/26 03:25:37;;;;;;;11.63;4.63;;;;;;;;;;4945358;28;20058;-85
2022/10/26 03:28:47;;;;;;;8.55;3.90;;;;;;;;;;4871444;29;20125;-85
2022/10/26 03:31:28;;;;;;;9.77;3.63;;;;;;;;;;4901189;28;20150;-85
2022/10/26 03:36:52;;;;;;;7.85;3.72;;;;;;;;;;4931458;28;20055;-85
2022/10/26 03:39:36;;;;;;;9.48;4.15;;;;;;;;;;4965163;28;20067;-85
2022/10/26 03:42:12;;;;;;;7.68;3.55;;;;;;;;;;4962463;28;20111;-85
2022/10/26 03:44:50;;;;;;;13.82;3.88;;;;;;;;;;4966585;28;20075;-85
2022/10/26 03:48:14;;;;;;;6.90;4.00;;;;;;;;;;4926144;28;20118;-85
2022/10/26 03:50:48;;;;;;;10.50;3.88;;;;;;;;;;4953875;28;20048;-85
2022/10/26 03:53:28;;;;;;;8.27;3.67;;;;;;;;;;4960222;28;20043;-85
2022/10/26 03:55:55;;;;;;;12.75;4.75;;;;;;;;;;4951346;28;20063;-87
2022/10/26 03:58:25;;;;;;;9.45;3.78;;;;;;;;;;4953697;28;20055;-85
2022/10/26 04:00:56;;;;;;;12.05;3.72;;;;;;;;;;4957825;28;20190;-85
2022/10/26 04:03:50;;;;;;;11.32;4.05;;;;;;;;;;4954519;28;20086;-85
2022/10/26 04:06:30;;;;;;;7.88;4.07;;;;;;;;;;4994005;28;20141;-85
2022/10/26 04:09:02;;;;;;;11.73;4.35;;;;;;;;;;4997093;28;20565;-87
2022/10/26 04:11:59;;;;;;;10.48;4.55;;;;;;;;;;4995488;28;20061;-84
2022/10/26 04:14:29;;;;;;;8.60;4.05;;;;;;;;;;5001701;28;20051;-86
2022/10/26 04:19:52;;;;;;;12.20;4.20;;;;;;;;;;5001447;28;20870;-84
2022/10/26 04:22:43;;;;;;;9.75;4.47;;;;;;;;;;5009871;28;20074;-84
2022/10/26 04:25:32;;;;;;;10.75;4.45;;;;;;;;;;5004744;28;20054;-84
2022/10/26 04:28:41;;;;;;;11.68;5.13;;;;;;;;;;4996252;28;20062;-84
2022/10/26 04:31:11;;;;;;;6.88;4.20;;;;;;;;;;5044360;28;20053;-84
2022/10/26 04:33:47;;;;;;;7.82;4.20;;;;;;;;;;5040706;28;20049;-85
2022/10/26 04:36:30;;;;;;;7.97;4.53;;;;;;;;;;5038518;28;20822;-87
2022/10/26 04:39:24;;;;;;;7.85;4.63;;;;;;;;;;4975002;28;20054;-84
2022/10/26 04:42:15;;;;;;;13.48;4.20;;;;;;;;;;4967223;28;20391;-84
2022/10/26 04:45:00;;;;;;;10.20;4.35;;;;;;;;;;4959468;28;20055;-85
2022/10/26 04:48:05;;;;;;;7.68;3.75;;;;;;;;;;4995532;28;20110;-84
2022/10/26 04:50:46;;;;;;;8.82;4.22;;;;;;;;;;5018150;28;20054;-86
2022/10/26 04:53:26;;;;;;;11.23;4.43;;;;;;;;;;5024460;28;20056;-84
2022/10/26 04:59:25;;;;;;;12.60;4.70;;;;;;;;;;5006510;28;20122;-84
2022/10/26 05:02:21;;;;;;;6.72;4.18;;;;;;;;;;4911233;29;20065;-86
2022/10/26 05:08:06;;;;;;;13.75;4.28;;;;;;;;;;4877325;29;20165;-86
2022/10/26 05:10:42;;;;;;;12.10;4.47;;;;;;;;;;4910253;29;20820;-84
2022/10/26 05:13:16;;;;;;;12.48;4.18;;;;;;;;;;4908723;29;20069;-84
2022/10/26 05:15:53;;;;;;;10.13;4.57;;;;;;;;;;4910242;29;20059;-86
2022/10/26 05:22:26;;;;;;;10.10;4.22;;;;;;;;;;4930133;28;20144;-86
2022/10/26 05:25:17;;;;;;;10.07;4.97;;;;;;;;;;4923603;28;20053;-84
2022/10/26 05:28:13;;;;;;;8.90;4.07;;;;;;;;;;4976767;28;20495;-87
2022/10/26 05:33:57;;;;;;;;;;;;;;;;;;4956002;28;20047;-84
2022/10/26 05:36:31;;;;;;;12.18;4.93;;;;;;;;;;4976951;28;44470;-84
2022/10/26 05:39:07;;;;;;;6.68;4.38;;;;;;;;;;4981233;28;20090;-85
2022/10/26 05:45:02;;;;;;;7.85;3.65;;;;;;;;;;4885423;29;20105;-86
2022/10/26 05:50:51;;;;;;;10.38;4.18;;;;;;;;;;4987051;28;20058;-84
2022/10/26 05:53:39;;;;;;;9.27;3.72;;;;;;;;;;4966075;28;20059;-84
2022/10/26 05:56:40;;;;;;;6.00;3.58;;;;;;;;;;4980489;28;20060;-84
2022/10/26 05:59:45;;;;;;;13.15;3.95;;;;;;;;;;4923638;29;20060;-86
2022/10/26 06:05:54;;;;;;;11.10;3.30;;;;;;;;;;4949912;28;20067;-85
2022/10/26 06:12:12;;;;;;;;;;;;;;;;;;;;;
2022/10/26 06:15:05;;;;;;;6.60;2.85;;;;;;;;;;5021810;28;20108;-85
2022/10/26 06:17:41;;;;;;;8.05;3.33;;;;;;;;;;5037734;28;20053;-86
2022/10/26 06:20:35;;;;;;;8.13;3.08;;;;;;;;;;5033747;28;20587;-85
2022/10/26 06:23:38;;;;;;;8.38;3.53;;;;;;;;;;5049995;28;20053;-85
2022/10/26 06:26:28;;;;;;;;;;;;;;;;;;;;;
2022/10/26 06:29:41;;;;;;;11.73;4.13;;;;;;;;;;5064732;28;20110;-86
2022/10/26 06:32:16;;;;;;;19.33;3.30;;;;;;;;;;5054266;28;20049;-86
2022/10/26 06:38:43;;;;;;;7.43;3.40;;;;;;;;;;4950766;28;20063;-86
2022/10/26 06:41:32;;;;;;;7.93;3.10;;;;;;;;;;4958601;28;20056;-86
2022/10/26 06:44:05;;;;;;;9.95;3.50;;;;;;;;;;4953868;28;20148;-85
2022/10/26 06:46:48;;;;;;;9.77;3.55;;;;;;;;;;4955904;28;20319;-85
2022/10/26 06:49:33;;;;;;;6.88;3.50;;;;;;;;;;4950426;28;20062;-85
2022/10/26 06:52:09;;;;;;;6.45;3.53;;;;;;;;;;4954459;28;20055;-85
2022/10/26 06:55:07;;;;;;;9.65;3.30;;;;;;;;;;4947308;28;20937;-85
2022/10/26 06:57:54;;;;;;;11.57;3.17;;;;;;;;;;4953797;28;20062;-85
2022/10/26 07:00:21;;;;;;;;;;;;;;;;;;4951105;28;20063;-86
2022/10/26 07:03:04;;;;;;;9.77;2.40;;;;;;;;;;4945733;28;43637;-85
2022/10/26 07:06:13;;;;;;;7.18;3.08;;;;;;;;;;4936239;28;20073;-86
2022/10/26 07:08:41;;;;;;;6.70;3.15;;;;;;;;;;4945062;28;20052;-86
2022/10/26 07:11:41;;;;;;;6.30;3.00;;;;;;;;;;4958151;28;20056;-86
2022/10/26 07:14:12;;;;;;;9.27;3.53;;;;;;;;;;5026265;28;20076;-86
2022/10/26 07:17:06;;;;;;;5.82;2.92;;;;;;;;;;5055842;28;20056;-86
2022/10/26 07:19:43;;;;;;;5.65;3.17;;;;;;;;;;5049919;28;20057;-86
2022/10/26 07:25:33;;;;;;;5.72;2.78;;;;;;;;;;5027496;28;20069;-86
2022/10/26 07:28:12;;;;;;;6.22;2.45;;;;;;;;;;5025574;28;20050;-86
2022/10/26 07:31:14;;;;;;;5.05;2.88;;;;;;;;;;5021035;28;20100;-86
2022/10/26 07:34:27;;;;;;;6.85;2.58;;;;;;;;;;5025701;28;20584;-86
2022/10/26 07:37:18;;;;;;;6.95;2.40;;;;;;;;;;5025792;28;20050;-84
2022/10/26 07:40:02;;;;;;;6.78;2.55;;;;;;;;;;5021911;28;20053;-86
2022/10/26 07:42:55;;;;;;;9.15;2.95;;;;;;;;;;5015161;28;20077;-86
2022/10/26 07:45:23;;;;;;;5.35;2.67;;;;;;;;;;5021015;28;20058;-86
2022/10/26 07:51:04;;;;;;;4.80;2.33;;;;;;;;;;5013261;28;20447;-85
2022/10/26 07:53:36;;;;;;;6.15;2.72;;;;;;;;;;5022740;28;20057;-85
2022/10/26 07:56:11;;;;;;;14.68;3.15;;;;;;;;;;5006795;28;20508;-85
2022/10/26 07:58:57;;;;;;;13.20;3.53;;;;;;;;;;5021388;28;20053;-85
2022/10/26 08:01:39;;;;;;;6.70;2.75;;;;;;;;;;5028744;28;20320;-86
2022/10/26 08:04:25;;;;;;;7.47;2.85;;;;;;;;;;5067132;28;20053;-86
2022/10/26 08:07:12;;;;;;;5.85;2.70;;;;;;;;;;5065222;28;20057;-86
2022/10/26 08:09:39;;;;;;;7.85;3.05;;;;;;;;;;5066850;28;20064;-85
2022/10/26 08:12:09;;;;;;;6.68;2.80;;;;;;;;;;5046726;28;20061;-86
2022/10/26 08:18:00;;;;;;;5.30;2.85;;;;;;;;;;5061867;28;20049;-85
2022/10/26 08:20:27;;;;;;;7.70;2.80;;;;;;;;;;5065101;28;20211;-85
2022/10/26 08:23:04;;;;;;;7.80;3.03;;;;;;;;;;5065591;28;20584;-86
2022/10/26 08:25:32;;;;;;;12.35;3.00;;;;;;;;;;5060492;28;20053;-85
2022/10/26 08:28:03;;;;;;;6.10;3.05;;;;;;;;;;5062733;28;20052;-85
2022/10/26 08:30:31;;;;;;;7.30;3.22;;;;;;;;;;5066951;28;20056;-85
2022/10/26 08:33:02;;;;;;;8.93;3.00;;;;;;;;;;5069510;28;20049;-86
2022/10/26 08:35:50;;;;;;;4.38;2.67;;;;;;;;;;5049639;28;20488;-86
2022/10/26 08:38:21;;;;;;;8.65;3.33;;;;;;;;;;5064581;28;20052;-86
2022/10/26 08:40:49;;;;;;;10.70;3.00;;;;;;;;;;5058170;28;20480;-86
2022/10/26 08:43:33;;;;;;;;;;;;;;;;;;;;;
2022/10/26 08:46:15;;;;;;;9.98;3.42;;;;;;;;;;5061133;28;20049;-86
2022/10/26 08:48:47;;;;;;;8.80;3.05;;;;;;;;;;5063823;28;20768;-85
2022/10/26 08:51:37;;;;;;;;;;;;;;;;;;;;;
2022/10/26 08:54:35;;;;;;;4.65;2.92;;;;;;;;;;5013662;28;20059;-86
2022/10/26 08:57:30;;;;;;;4.80;2.50;;;;;;;;;;5054732;28;20064;-85
2022/10/26 09:00:04;;;;;;;7.55;2.63;;;;;;;;;;5056369;28;20079;-85
2022/10/26 09:02:42;;;;;;;7.15;2.95;;;;;;;;;;5063459;28;20087;-85
2022/10/26 09:05:22;;;;;;;6.53;3.15;;;;;;;;;;5057675;28;20049;-86
2022/10/26 09:07:59;;;;;;;5.43;2.97;;;;;;;;;;5054616;28;20057;-85
2022/10/26 09:10:55;;;;;;;9.30;3.30;;;;;;;;;;5050098;28;20059;-86
2022/10/26 09:13:54;;;;;;;5.93;2.85;;;;;;;;;;5013693;28;20065;-85
2022/10/26 09:16:38;;;;;;;8.25;2.80;;;;;;;;;;5053553;28;20061;-86
2022/10/26 09:19:22;;;;;;;6.60;2.53;;;;;;;;;;5061477;28;20057;-86
2022/10/26 09:22:25;;;;;;;10.00;2.90;;;;;;;;;;5066820;28;20064;-85
2022/10/26 09:25:19;;;;;;;7.63;2.97;;;;;;;;;;5042453;28;20060;-86
2022/10/26 09:27:55;;;;;;;8.27;2.55;;;;;;;;;;5033697;28;20053;-85
2022/10/26 09:30:24;;;;;;;8.88;3.13;;;;;;;;;;5062485;28;20716;-86
2022/10/26 09:33:19;;;;;;;12.90;3.05;;;;;;;;;;5043008;28;20061;-85
2022/10/26 09:39:35;;;;;;;11.00;3.00;;;;;;;;;;5025831;28;20050;-85
2022/10/26 09:42:24;;;;;;;6.85;2.97;;;;;;;;;;5027313;28;20060;-86
2022/10/26 09:44:58;;;;;;;5.90;2.50;;;;;;;;;;5029233;28;20058;-85
2022/10/26 09:47:51;;;;;;;8.13;2.67;;;;;;;;;;5033712;28;20073;-85
2022/10/26 09:50:23;;;;;;;6.75;2.45;;;;;;;;;;5028363;28;20050;-85
2022/10/26 09:52:54;;;;;;;6.68;2.25;;;;;;;;;;5021536;28;20064;-85
2022/10/26 09:55:30;;;;;;;10.55;2.88;;;;;;;;;;5020903;28;20108;-85
2022/10/26 09:58:18;;;;;;;8.50;2.45;;;;;;;;;;5027363;28;20597;-85
2022/10/26 10:00:45;;;;;;;7.43;2.45;;;;;;;;;;5022835;28;20160;-85
2022/10/26 10:03:32;;;;;;;4.00;2.35;;;;;;;;;;5027471;28;20212;-85
2022/10/26 10:06:24;;;;;;;4.78;2.20;;;;;;;;;;5027351;28;20076;-85
2022/10/26 10:09:23;;;;;;;5.50;2.30;;;;;;;;;;4997295;28;20046;-85
2022/10/26 10:11:58;;;;;;;4.65;2.47;;;;;;;;;;5024963;28;20094;-85
2022/10/26 10:14:29;;;;;;;6.75;2.28;;;;;;;;;;5021524;28;20057;-84
2022/10/26 10:17:22;;;;;;;8.27;2.10;;;;;;;;;;5043599;28;20061;-86
2022/10/26 10:19:49;;;;;;;4.10;2.13;;;;;;;;;;5064501;28;20049;-87
2022/10/26 10:25:57;;;;;;;4.97;2.40;;;;;;;;;;5065913;28;20053;-87
2022/10/26 10:28:34;;;;;;;7.90;2.50;;;;;;;;;;5062210;28;20088;-84
2022/10/26 10:31:20;;;;;;;8.65;2.10;;;;;;;;;;5059977;28;20280;-86
2022/10/26 10:33:51;;;;;;;5.75;2.20;;;;;;;;;;5045532;28;20045;-86
2022/10/26 10:36:39;;;;;;;8.30;2.35;;;;;;;;;;5047146;28;20442;-87
2022/10/26 10:39:25;;;;;;;4.55;2.13;;;;;;;;;;5060857;28;20597;-86
2022/10/26 10:42:26;;;;;;;5.47;2.10;;;;;;;;;;5042983;28;20092;-84
2022/10/26 10:44:57;;;;;;;5.28;2.25;;;;;;;;;;5048161;28;20049;-87
2022/10/26 10:47:26;;;;;;;8.02;2.42;;;;;;;;;;5069816;28;20107;-86
2022/10/26 10:50:05;;;;;;;8.25;2.60;;;;;;;;;;5061462;28;20053;-86
2022/10/26 10:52:52;;;;;;;8.98;2.08;;;;;;;;;;5035552;28;20134;-86
2022/10/26 10:55:38;;;;;;;8.13;2.20;;;;;;;;;;5055006;28;20053;-86
2022/10/26 10:58:21;;;;;;;6.63;2.20;;;;;;;;;;5061185;28;20534;-85
2022/10/26 11:00:48;;;;;;;;;;;;;;;;;;5063624;28;20564;-84
2022/10/26 11:03:24;;;;;;;9.40;2.65;;;;;;;;;;5063337;28;44639;-86
2022/10/26 11:05:59;;;;;;;5.50;2.10;;;;;;;;;;5064722;28;20057;-86
2022/10/26 11:08:45;;;;;;;6.63;2.25;;;;;;;;;;5037766;28;20798;-86
2022/10/26 11:11:20;;;;;;;5.80;2.38;;;;;;;;;;5063013;28;20582;-85
2022/10/26 11:14:09;;;;;;;5.88;2.63;;;;;;;;;;5046074;28;20069;-83
2022/10/26 11:16:44;;;;;;;5.85;2.53;;;;;;;;;;5065685;28;20439;-86
2022/10/26 11:19:42;;;;;;;;;;;;;;;;;;;;;
2022/10/26 11:23:14;;;;;;;4.60;2.70;;;;;;;;;;5006947;28;20084;-86
2022/10/26 11:25:58;;;;;;;9.00;3.00;;;;;;;;;;5000338;28;20123;-86
2022/10/26 11:28:38;;;;;;;11.07;2.83;;;;;;;;;;4984994;28;20975;-86
2022/10/26 11:31:25;;;;;;;7.70;2.58;;;;;;;;;;5001580;28;20046;-86
2022/10/26 11:37:32;;;;;;;14.23;3.35;;;;;;;;;;4962511;28;20067;-87
2022/10/26 11:40:22;;;;;;;5.95;2.53;;;;;;;;;;4937216;28;20058;-86
2022/10/26 11:43:34;;;;;;;8.30;2.53;;;;;;;;;;4960072;28;20512;-86
2022/10/26 11:46:41;;;;;;;7.22;2.53;;;;;;;;;;4948031;28;20062;-86
2022/10/26 11:49:24;;;;;;;6.18;2.25;;;;;;;;;;4963720;28;20059;-86
2022/10/26 11:52:16;;;;;;;4.50;2.30;;;;;;;;;;4944143;28;20491;-83
2022/10/26 11:55:16;;;;;;;3.97;2.10;;;;;;;;;;5004737;28;20075;-86
2022/10/26 11:57:47;;;;;;;4.45;2.28;;;;;;;;;;5001014;28;20054;-86
2022/10/26 12:00:25;;;;;;;5.40;2.30;;;;;;;;;;5004047;28;20070;-86
2022/10/26 12:03:25;;;;;;;7.57;2.63;;;;;;;;;;4997021;28;20297;-85
2022/10/26 12:06:21;;;;;;;6.68;2.47;;;;;;;;;;5004594;28;20085;-83
2022/10/26 12:08:51;;;;;;;4.97;2.80;;;;;;;;;;4994966;28;20059;-83
2022/10/26 12:11:40;;;;;;;7.30;2.70;;;;;;;;;;5002284;28;21127;-83
2022/10/26 12:14:28;;;;;;;5.57;2.70;;;;;;;;;;5005619;28;20065;-86
2022/10/26 12:17:17;;;;;;;4.18;2.25;;;;;;;;;;5004774;28;20054;-86
2022/10/26 12:20:05;;;;;;;7.70;2.75;;;;;;;;;;5005985;28;20058;-83
2022/10/26 12:22:42;;;;;;;6.07;2.30;;;;;;;;;;5014674;28;20070;-86
2022/10/26 12:25:45;;;;;;;5.78;2.15;;;;;;;;;;5007640;28;20050;-86
2022/10/26 12:32:42;;;;;;;5.72;2.15;;;;;;;;;;4906072;29;20068;-85
2022/10/26 12:35:49;;;;;;;6.55;2.25;;;;;;;;;;4904076;29;20079;-86
2022/10/26 12:38:25;;;;;;;2.83;1.70;;;;;;;;;;4909841;29;20041;-84
2022/10/26 12:41:35;;;;;;;;;;;;;;;;;;;;;
2022/10/26 12:44:31;;;;;;;6.35;1.90;;;;;;;;;;4906206;29;20083;-85
2022/10/26 12:47:02;;;;;;;7.78;2.30;;;;;;;;;;4910670;29;20057;-85
2022/10/26 12:50:02;;;;;;;4.18;2.03;;;;;;;;;;4914762;29;20367;-83
2022/10/26 12:52:48;;;;;;;4.90;2.25;;;;;;;;;;4909537;29;20727;-85
2022/10/26 12:55:47;;;;;;;4.72;1.90;;;;;;;;;;4920110;29;20057;-86
2022/10/26 12:58:26;;;;;;;4.70;1.98;;;;;;;;;;4909928;29;20075;-86
2022/10/26 13:01:34;;;;;;;;;;;;;;;;;;;;;
2022/10/26 13:04:39;;;;;;;3.85;1.88;;;;;;;;;;4910821;29;20124;-86
2022/10/26 13:07:11;;;;;;;6.47;2.10;;;;;;;;;;4918733;28;20886;-86
2022/10/26 13:09:39;;;;;;;5.32;2.10;;;;;;;;;;4974510;28;20052;-83
2022/10/26 13:12:10;;;;;;;4.57;1.83;;;;;;;;;;5005122;28;20121;-86
2022/10/26 13:14:57;;;;;;;8.93;2.17;;;;;;;;;;5001643;28;20568;-85
2022/10/26 13:17:31;;;;;;;4.55;1.83;;;;;;;;;;5006601;28;20621;-85
2022/10/26 13:20:04;;;;;;;4.45;1.80;;;;;;;;;;5007523;28;20043;-85
2022/10/26 13:22:32;;;;;;;4.07;1.92;;;;;;;;;;5020058;28;20073;-86
2022/10/26 13:25:03;;;;;;;8.13;2.03;;;;;;;;;;5021006;28;20116;-85
2022/10/26 13:27:48;;;;;;;3.53;1.92;;;;;;;;;;5003233;28;20783;-86
2022/10/26 13:30:38;;;;;;;5.60;2.10;;;;;;;;;;5025222;28;20177;-85
2022/10/26 13:33:21;;;;;;;3.90;1.85;;;;;;;;;;5025378;28;20116;-85
2022/10/26 13:35:54;;;;;;;4.68;1.95;;;;;;;;;;5024891;28;20054;-86
2022/10/26 13:38:37;;;;;;;5.88;2.70;;;;;;;;;;5009379;28;20618;-85
2022/10/26 13:42:35;;;;;;;3.28;2.00;;;;;;;;;;5030358;28;20065;-85
2022/10/26 13:45:01;;;;;;;5.53;2.35;;;;;;;;;;5003191;28;20077;-85
2022/10/26 13:47:42;;;;;;;7.53;2.50;;;;;;;;;;5018340;28;20923;-85
2022/10/26 13:50:23;;;;;;;6.30;2.53;;;;;;;;;;5031227;28;20060;-83
2022/10/26 13:53:13;;;;;;;5.30;2.50;;;;;;;;;;5022417;28;20053;-86
2022/10/26 13:56:00;;;;;;;4.53;2.30;;;;;;;;;;5002513;28;20054;-86
2022/10/26 13:58:27;;;;;;;;;;;;;;;;;;5009597;28;20062;-83
2022/10/26 14:01:04;;;;;;;6.20;2.60;;;;;;;;;;5026533;28;44079;-86
2022/10/26 14:04:03;;;;;;;8.50;2.60;;;;;;;;;;5023591;28;20046;-84
2022/10/26 14:06:48;;;;;;;;;;;;;;;;;;;;;
2022/10/26 14:09:28;;;;;;;9.57;2.25;;;;;;;;;;4977292;28;20053;-86
2022/10/26 14:15:08;;;;;;;14.88;3.00;;;;;;;;;;4986179;28;20109;-86
2022/10/26 14:17:41;;;;;;;5.40;2.83;;;;;;;;;;4979087;28;20064;-86
2022/10/26 14:20:24;;;;;;;9.80;2.70;;;;;;;;;;4974351;28;20058;-86
2022/10/26 14:26:17;;;;;;;;;;;;;;;;;;;;;
2022/10/26 14:29:17;;;;;;;8.05;2.42;;;;;;;;;;4109514;27;28183167;-78
2022/10/26 14:31:56;;;;;;;4.28;2.10;;;;;;;;;;5087858;28;20065;-77
2022/10/26 14:34:47;;;;;;;6.63;2.25;;;;;;;;;;5088217;28;20089;-78
2022/10/26 14:37:28;;;;;;;9.35;2.03;;;;;;;;;;5089277;28;20068;-78
2022/10/26 14:40:24;;;;;;;6.60;1.75;;;;;;;;;;5080701;28;20049;-75
2022/10/26 14:42:59;;;;;;;3.65;1.67;;;;;;;;;;5086805;28;20283;-78
2022/10/26 14:45:35;;;;;;;5.95;1.90;;;;;;;;;;5085398;28;20051;-78
2022/10/26 14:48:23;;;;;;;2.63;1.55;;;;;;;;;;5086592;28;20832;-78
2022/10/26 14:51:05;;;;;;;5.72;1.70;;;;;;;;;;5082879;28;20048;-75
2022/10/26 14:53:59;;;;;;;9.60;2.15;;;;;;;;;;5082477;28;20052;-78
2022/10/26 14:56:37;;;;;;;3.10;1.40;;;;;;;;;;5074958;28;20049;-75
2022/10/26 14:59:23;;;;;;;6.57;1.80;;;;;;;;;;5077871;28;20041;-75
2022/10/26 15:02:12;;;;;;;3.20;1.40;;;;;;;;;;5088105;28;20052;-76
2022/10/26 15:05:04;;;;;;;4.10;1.67;;;;;;;;;;5083765;28;20049;-77
2022/10/26 15:07:36;;;;;;;7.22;1.42;;;;;;;;;;5074712;28;20053;-76
2022/10/26 15:10:04;;;;;;;5.95;1.50;;;;;;;;;;5082803;28;20040;-77
2022/10/26 15:12:33;;;;;;;4.72;1.55;;;;;;;;;;5086156;28;20041;-77
2022/10/26 15:15:14;;;;;;;8.77;1.70;;;;;;;;;;5077678;28;20636;-76
2022/10/26 15:18:11;;;;;;;2.55;1.27;;;;;;;;;;5078540;28;20068;-77
2022/10/26 15:20:40;;;;;;;4.10;1.40;;;;;;;;;;5083860;28;20872;-76
2022/10/26 15:23:12;;;;;;;8.20;1.65;;;;;;;;;;5063620;28;20057;-77
2022/10/26 15:25:40;;;;;;;7.53;1.40;;;;;;;;;;5065873;28;20050;-77
2022/10/26 15:28:10;;;;;;;3.30;1.23;;;;;;;;;;5076888;28;20964;-77
2022/10/26 15:30:37;;;;;;;6.03;1.52;;;;;;;;;;5082671;28;20055;-77
2022/10/26 15:33:24;;;;;;;10.13;1.77;;;;;;;;;;5083211;28;20147;-77
2022/10/26 15:36:11;;;;;;;4.85;1.65;;;;;;;;;;5086837;28;20071;-76
2022/10/26 15:38:46;;;;;;;7.25;1.75;;;;;;;;;;5081190;28;20047;-76
2022/10/26 15:41:17;;;;;;;4.97;1.50;;;;;;;;;;5053680;28;20060;-76
2022/10/26 15:43:47;;;;;;;10.15;1.80;;;;;;;;;;5070212;28;20557;-76
2022/10/26 15:46:17;;;;;;;3.75;1.67;;;;;;;;;;5074758;28;20057;-76
2022/10/26 15:48:58;;;;;;;4.25;1.60;;;;;;;;;;5065055;28;20140;-75
2022/10/26 15:51:30;;;;;;;8.43;2.13;;;;;;;;;;5068457;28;20064;-75
2022/10/26 15:53:58;;;;;;;4.55;1.80;;;;;;;;;;5070962;28;20052;-77
2022/10/26 15:56:31;;;;;;;5.82;2.10;;;;;;;;;;5068362;28;20045;-75
2022/10/26 15:59:04;;;;;;;9.32;2.13;;;;;;;;;;5064820;28;20067;-75
2022/10/26 16:01:39;;;;;;;8.73;2.50;;;;;;;;;;5059250;28;20049;-77
2022/10/26 16:04:23;;;;;;;7.68;2.15;;;;;;;;;;5073192;28;20049;-77
2022/10/26 16:07:04;;;;;;;5.65;1.75;;;;;;;;;;5052212;28;20053;-77
2022/10/26 16:09:32;;;;;;;5.90;1.48;;;;;;;;;;5065837;28;20055;-78
2022/10/26 16:12:33;;;;;;;6.00;2.20;;;;;;;;;;5074497;28;20037;-77
2022/10/26 16:15:04;;;;;;;3.85;1.60;;;;;;;;;;5047687;28;20053;-78
2022/10/26 16:17:38;;;;;;;5.30;1.63;;;;;;;;;;5054503;28;20052;-77
2022/10/26 16:20:47;;;;;;;5.78;1.80;;;;;;;;;;5065342;28;21106;-76
2022/10/26 16:23:46;;;;;;;4.13;1.42;;;;;;;;;;5066535;28;20026;-76
2022/10/26 16:26:32;;;;;;;6.28;1.80;;;;;;;;;;5048326;28;20045;-76
2022/10/26 16:29:04;;;;;;;4.93;1.55;;;;;;;;;;5070982;28;20073;-76
2022/10/26 16:31:31;;;;;;;6.55;1.77;;;;;;;;;;5075136;28;20051;-76
2022/10/26 16:34:01;;;;;;;6.50;1.70;;;;;;;;;;5073989;28;20039;-76
2022/10/26 16:36:33;;;;;;;9.40;1.92;;;;;;;;;;5066493;28;20057;-75
2022/10/26 16:39:12;;;;;;;3.20;1.70;;;;;;;;;;5068913;28;20128;-75
2022/10/26 16:41:51;;;;;;;5.05;1.45;;;;;;;;;;5079807;28;20063;-74
2022/10/26 16:44:36;;;;;;;7.93;1.67;;;;;;;;;;5045530;28;20054;-74
2022/10/26 16:47:25;;;;;;;6.22;1.85;;;;;;;;;;5066297;28;20057;-75
2022/10/26 16:50:02;;;;;;;6.88;1.60;;;;;;;;;;5066131;28;20041;-76
2022/10/26 16:52:46;;;;;;;2.55;1.75;;;;;;;;;;5054579;28;20053;-76
2022/10/26 16:55:23;;;;;;;7.15;1.90;;;;;;;;;;5076214;28;20811;-74
2022/10/26 16:58:07;;;;;;;6.75;2.03;;;;;;;;;;5067398;28;20058;-74
2022/10/26 17:01:00;;;;;;;14.85;2.80;;;;;;;;;;5043280;28;20804;-74
2022/10/26 17:03:33;;;;;;;11.25;2.03;;;;;;;;;;5048149;28;20041;-75
2022/10/26 17:06:20;;;;;;;6.00;2.40;;;;;;;;;;5062910;28;20056;-76
2022/10/26 17:09:02;;;;;;;3.55;1.70;;;;;;;;;;5075375;28;20053;-74
2022/10/26 17:11:55;;;;;;;4.28;2.00;;;;;;;;;;5061495;28;20064;-75
2022/10/26 17:15:09;;;;;;;4.47;1.92;;;;;;;;;;5056293;28;20042;-75
2022/10/26 17:18:12;;;;;;;6.07;2.50;;;;;;;;;;5028871;28;20116;-75
2022/10/26 17:20:54;;;;;;;6.40;2.28;;;;;;;;;;5053158;28;20221;-75
2022/10/26 17:23:21;;;;;;;5.05;1.80;;;;;;;;;;5045637;28;20046;-76
2022/10/26 17:26:09;;;;;;;5.60;2.10;;;;;;;;;;5036743;28;20925;-75
2022/10/26 17:28:56;;;;;;;4.63;1.90;;;;;;;;;;5039208;28;20049;-75
2022/10/26 17:32:05;;;;;;;5.20;2.33;;;;;;;;;;5023745;28;20045;-75
2022/10/26 17:34:42;;;;;;;7.15;1.88;;;;;;;;;;5053215;28;20771;-74
2022/10/26 17:37:12;;;;;;;6.82;2.30;;;;;;;;;;5049182;28;20089;-75
2022/10/26 17:40:09;;;;;;;4.82;2.20;;;;;;;;;;5049921;28;20605;-75
2022/10/26 17:43:22;;;;;;;5.63;2.38;;;;;;;;;;5042711;28;20973;-75
2022/10/26 17:46:23;;;;;;;4.60;2.70;;;;;;;;;;5050542;28;20045;-75
2022/10/26 17:49:10;;;;;;;;;;;;;;;;;;5030691;28;20069;-74
2022/10/26 17:52:23;;;;;;;5.78;2.42;;;;;;;;;;4978720;28;19914;-75
2022/10/26 17:55:10;;;;;;;5.70;2.78;;;;;;;;;;4966690;28;20165;-75
2022/10/26 17:57:43;;;;;;;9.90;2.70;;;;;;;;;;4991892;28;20859;-76
2022/10/26 18:03:19;;;;;;;9.57;2.90;;;;;;;;;;4974889;28;20035;-74